Weather History for KT82 - January, 2013

Change the Weather History Date:

Tuesday, January 15, 2013

  Actual Average (KSAT) Record (KSAT)
Temperature  
Mean Temperature 32 °F 52 °F  
Max Temperature 36 °F 63 °F 81 °F (1894)
Min Temperature 29 °F 41 °F 11 °F (1888)
Degree Days  
Heating Degree Days 32 14  
Month to date heating degree days 210  
Since 1 July heating degree days 812  
Cooling Degree Days 0 0  
Month to date cooling degree days 0  
Year to date cooling degree days 0  
Moisture  
Dew Point 29 °F    
Average Humidity 84    
Maximum Humidity 95    
Minimum Humidity 67    
Precipitation  
Precipitation 0.00 in 0.05 in 1.81 in (2010)
Month to date precipitation 0.80  
Year to date precipitation 0.80  
Snow  
Snow 0.00 in - - ()
Month to date snowfall  
Since 1 July snowfall  
Snow Depth -    
Sea Level Pressure  
Sea Level Pressure 30.13 in    
Wind  
Wind Speed 10 mph (North)    
Max Wind Speed 17 mph    
Max Gust Speed 23 mph    
Visibility 10 miles    
Events Rain    
T = Trace of Precipitation, MM = Missing Value Source: NWS Daily Summary

Daily Weather History Graph

Daily Weather History Graph

Search for Another Location

Airport or City:

Trip Planner

Search our weather history database for the weather conditions in past years. The results will help you decide how hot, cold, wet, or windy it might be!

Date:

Astronomy

Jan. 15, 2013 Rise Set
Actual Time 7:32 AM CST 5:57 PM CST
Civil Twilight 7:06 AM CST 6:23 PM CST
Nautical Twilight 6:37 AM CST 6:53 PM CST
Astronomical Twilight 6:08 AM CST 7:22 PM CST
Moon 10:01 AM CST (1/15) 10:24 PM CST (1/15)
Length of Visible Light 11h 17m
Length of Day
10h 25m
Waxing Crescent, 19% of the Moon is Illuminated
Jan 15
Waxing Crescent
Jan 18
First Quarter
Jan 26
Full
Feb 3
Last Quarter
Feb 10
New

Hourly Weather History & Observations

Time (CST) Temp. Windchill Dew Point Humidity Pressure Visibility Wind Dir Wind Speed Gust Speed Precip Events Conditions
12:15 AM 35.6 °F 29.9 °F 30.0 °F 80% 30.11 in 10.0 mi NE 6.9 mph - N/A   Overcast
12:35 AM 35.1 °F 27.4 °F 30.7 °F 84% 30.10 in 10.0 mi NE 10.4 mph - N/A   Overcast
12:55 AM 34.7 °F 28.8 °F 31.1 °F 87% 30.09 in 10.0 mi NE 6.9 mph - N/A   Overcast
1:15 AM 34.7 °F 28.8 °F 31.5 °F 88% 30.09 in 10.0 mi NNE 6.9 mph - N/A   Overcast
1:35 AM 34.7 °F 29.6 °F 31.6 °F 89% 30.09 in 10.0 mi North 5.8 mph - N/A   Overcast
1:55 AM 34.3 °F 28.4 °F 31.5 °F 89% 30.10 in 10.0 mi NNE 6.9 mph - N/A   Overcast
2:15 AM 34.3 °F 27.7 °F 31.8 °F 90% 30.10 in 10.0 mi North 8.1 mph - N/A   Overcast
2:35 AM 33.8 °F 26.4 °F 32.0 °F 93% 30.09 in 10.0 mi North 9.2 mph - N/A   Overcast
2:55 AM 33.3 °F 25.7 °F 32.0 °F 95% 30.09 in 7.0 mi North 9.2 mph - N/A Rain Light Rain
3:15 AM 33.4 °F 28.1 °F 31.8 °F 94% 30.09 in 10.0 mi NNE 5.8 mph - N/A Rain Light Rain
3:35 AM 33.8 °F 27.0 °F 30.9 °F 89% 30.09 in 10.0 mi North 8.1 mph - N/A   Overcast
3:55 AM 34.0 °F 28.8 °F 30.7 °F 88% 30.08 in 10.0 mi NE 5.8 mph - N/A   Overcast
4:15 AM 34.0 °F 28.8 °F 30.2 °F 86% 30.08 in 10.0 mi NNE 5.8 mph - N/A   Overcast
4:55 AM 33.8 °F 27.0 °F 30.0 °F 86% 30.08 in 10.0 mi NNE 8.1 mph - N/A   Overcast
5:15 AM 33.8 °F 27.0 °F 29.8 °F 85% 30.07 in 10.0 mi NNE 8.1 mph - N/A   Overcast
5:35 AM 33.8 °F 29.6 °F 30.0 °F 86% 30.08 in 10.0 mi NNE 4.6 mph - N/A   Overcast
5:55 AM 33.8 °F 27.7 °F 29.7 °F 85% 30.08 in 10.0 mi NNE 6.9 mph - N/A   Overcast
6:15 AM 33.8 °F 27.0 °F 29.7 °F 85% 30.08 in 10.0 mi North 8.1 mph - N/A   Overcast
6:35 AM 33.8 °F 27.0 °F 29.7 °F 85% 30.09 in 10.0 mi NNE 8.1 mph - N/A   Overcast
6:55 AM 34.0 °F 27.2 °F 30.0 °F 85% 30.10 in 10.0 mi North 8.1 mph - N/A   Overcast
7:15 AM 33.8 °F 26.4 °F 30.2 °F 87% 30.11 in 10.0 mi North 9.2 mph - N/A   Overcast
7:35 AM 33.6 °F 26.8 °F 30.7 °F 89% 30.11 in 10.0 mi North 8.1 mph - N/A   Overcast
7:55 AM 33.3 °F 24.1 °F 30.7 °F 90% 30.11 in 10.0 mi North 12.7 mph 17.3 mph N/A   Overcast
8:15 AM 33.3 °F 27.1 °F 30.9 °F 91% 30.12 in 10.0 mi North 6.9 mph - N/A   Overcast
8:35 AM 33.4 °F 25.9 °F 31.1 °F 91% 30.13 in 10.0 mi North 9.2 mph - N/A   Overcast
8:55 AM 33.1 °F 23.9 °F 30.9 °F 92% 30.13 in 10.0 mi North 12.7 mph - N/A   Overcast
9:15 AM 33.3 °F 23.7 °F 31.1 °F 92% 30.12 in 10.0 mi North 13.8 mph - N/A   Overcast
9:35 AM 33.3 °F 24.6 °F 31.1 °F 92% 30.13 in 10.0 mi North 11.5 mph 18.4 mph N/A   Overcast
9:55 AM 33.3 °F 25.1 °F 30.9 °F 91% 30.13 in 10.0 mi North 10.4 mph - N/A   Overcast
10:15 AM 33.3 °F 22.8 °F 30.7 °F 90% 30.14 in 10.0 mi North 16.1 mph 19.6 mph N/A   Overcast
10:35 AM 33.1 °F 24.9 °F 30.7 °F 91% 30.15 in 10.0 mi North 10.4 mph - N/A   Overcast
10:55 AM 32.9 °F 22.8 °F 30.6 °F 91% 30.15 in 10.0 mi North 15.0 mph 19.6 mph N/A   Overcast
11:15 AM 33.1 °F 23.4 °F 30.7 °F 91% 30.14 in 10.0 mi North 13.8 mph 17.3 mph N/A   Overcast
11:35 AM 33.6 °F 24.6 °F 31.1 °F 90% 30.14 in 10.0 mi NNW 12.7 mph - N/A   Overcast
11:55 AM 34.0 °F 23.8 °F 31.1 °F 89% 30.13 in 10.0 mi North 16.1 mph - N/A   Overcast
12:15 PM 33.8 °F 24.3 °F 31.1 °F 90% 30.12 in 10.0 mi North 13.8 mph - N/A   Overcast
12:35 PM 33.8 °F 23.2 °F 31.1 °F 90% 30.12 in 10.0 mi North 17.3 mph 23.0 mph N/A   Overcast
12:55 PM 33.4 °F 24.3 °F 31.1 °F 91% 30.11 in 10.0 mi North 12.7 mph 20.7 mph N/A   Overcast
1:15 PM 33.8 °F 25.3 °F 31.5 °F 91% 30.11 in 10.0 mi North 11.5 mph - N/A   Overcast
1:35 PM 34.2 °F 26.2 °F 31.6 °F 90% 30.10 in 10.0 mi North 10.4 mph 13.8 mph N/A   Overcast
1:55 PM 35.1 °F 24.8 °F 31.6 °F 87% 30.09 in 10.0 mi North 17.3 mph 23.0 mph N/A   Overcast
2:15 PM 35.8 °F 25.7 °F 31.8 °F 86% 30.08 in 10.0 mi North 17.3 mph 23.0 mph N/A   Overcast
2:35 PM 36.1 °F 26.5 °F 32.0 °F 85% 30.08 in 10.0 mi North 16.1 mph 23.0 mph N/A   Overcast
2:55 PM 35.8 °F 27.3 °F 31.6 °F 85% 30.10 in 10.0 mi North 12.7 mph - N/A   Overcast
3:15 PM 35.4 °F 26.0 °F 31.3 °F 85% 30.11 in 10.0 mi North 15.0 mph - N/A   Overcast
3:35 PM 35.6 °F 25.5 °F 31.1 °F 84% 30.12 in 10.0 mi North 17.3 mph - N/A   Overcast
3:55 PM 34.7 °F 25.5 °F 31.1 °F 87% 30.12 in 10.0 mi NNW 13.8 mph 21.9 mph N/A   Overcast
4:15 PM 34.7 °F 24.7 °F 31.5 °F 88% 30.13 in 10.0 mi NNW 16.1 mph - N/A   Overcast
4:35 PM 34.5 °F 25.3 °F 31.1 °F 87% 30.14 in 10.0 mi North 13.8 mph 20.7 mph N/A   Overcast
4:55 PM 35.2 °F 26.6 °F 30.7 °F 84% 30.15 in 10.0 mi NNW 12.7 mph 23.0 mph N/A   Overcast
5:15 PM 35.6 °F 26.2 °F 29.3 °F 78% 30.15 in 10.0 mi North 15.0 mph 21.9 mph N/A   Overcast
5:35 PM 35.6 °F 27.1 °F 28.6 °F 76% 30.15 in 10.0 mi North 12.7 mph - N/A   Overcast
5:55 PM 35.6 °F 26.2 °F 27.5 °F 72% 30.16 in 10.0 mi North 15.0 mph 19.6 mph N/A   Overcast
6:15 PM 35.1 °F 25.5 °F 27.7 °F 74% 30.16 in 10.0 mi North 15.0 mph 21.9 mph N/A   Overcast
6:35 PM 33.8 °F 25.8 °F 27.5 °F 78% 30.17 in 10.0 mi North 10.4 mph 16.1 mph N/A   Scattered Clouds
6:55 PM 33.3 °F 25.7 °F 27.1 °F 78% 30.16 in 10.0 mi North 9.2 mph - N/A   Clear
7:15 PM 32.9 °F 24.7 °F 26.6 °F 78% 30.16 in 10.0 mi North 10.4 mph - N/A   Clear
7:35 PM 32.4 °F 25.3 °F 26.1 °F 78% 30.18 in 10.0 mi NNW 8.1 mph - N/A   Clear
7:55 PM 32.5 °F 24.2 °F 25.0 °F 74% 30.18 in 10.0 mi NNW 10.4 mph - N/A   Clear
8:15 PM 32.4 °F 24.0 °F 23.9 °F 71% 30.19 in 10.0 mi NNW 10.4 mph - N/A   Clear
8:35 PM 32.2 °F 22.7 °F 23.5 °F 70% 30.19 in 10.0 mi NNW 12.7 mph 16.1 mph N/A   Clear
8:55 PM 32.0 °F 23.6 °F 23.2 °F 70% 30.20 in 10.0 mi NNW 10.4 mph - N/A   Clear
9:15 PM 32.0 °F 23.6 °F 23.0 °F 69% 30.19 in 10.0 mi NNW 10.4 mph - N/A   Clear
9:35 PM 31.5 °F 22.3 °F 22.5 °F 69% 30.20 in 10.0 mi NNW 11.5 mph - N/A   Clear
9:55 PM 31.1 °F 21.9 °F 22.1 °F 69% 30.21 in 10.0 mi NNW 11.5 mph - N/A   Clear
10:15 PM 30.7 °F 21.4 °F 21.2 °F 68% 30.21 in 10.0 mi NNW 11.5 mph - N/A   Clear
10:35 PM 30.6 °F 21.2 °F 20.7 °F 67% 30.22 in 10.0 mi NNW 11.5 mph - N/A   Clear
10:55 PM 29.8 °F 22.2 °F 20.5 °F 68% 30.23 in 10.0 mi NNW 8.1 mph - N/A   Clear
11:15 PM 29.8 °F 22.2 °F 20.1 °F 67% 30.23 in 10.0 mi NNW 8.1 mph - N/A   Clear
11:35 PM 29.3 °F 23.2 °F 19.9 °F 68% 30.23 in 10.0 mi NNW 5.8 mph - N/A   Clear